Time;durP1;ratioP1;P1;durP2;ratioP2;P2;SDS_P1;SDS_P2;PMS_P1;PMS_P2;Temp;Humidity;BMP_temperature;BMP_pressure;BME280_temperature;BME280_humidity;BME280_pressure;Samples;Min_cycle;Max_cycle;Signal;HPM_P1;HPM_P2
2023/06/03 00:02:13;;;;;;;17.70;5.60;;;14.80;99.90;;;;;;7289261;19;20192;-81
2023/06/03 00:04:42;;;;;;;20.97;5.90;;;14.70;99.90;;;;;;7286781;19;20292;-81
2023/06/03 00:07:09;;;;;;;15.87;6.10;;;14.60;99.90;;;;;;7288469;19;20570;-80
2023/06/03 00:09:34;;;;;;;15.47;6.33;;;14.60;99.90;;;;;;7285839;19;20457;-81
2023/06/03 00:12:00;;;;;;;21.40;5.90;;;14.60;99.90;;;;;;7285585;19;20547;-80
2023/06/03 00:14:26;;;;;;;14.20;5.47;;;14.50;99.90;;;;;;7289210;19;20192;-80
2023/06/03 00:16:52;;;;;;;16.30;6.17;;;14.40;99.90;;;;;;7288294;19;20187;-80
2023/06/03 00:19:18;;;;;;;17.27;5.77;;;14.40;99.90;;;;;;7308194;19;20215;-80
2023/06/03 00:21:49;;;;;;;20.77;6.03;;;14.40;99.90;;;;;;7287348;19;20257;-80
2023/06/03 00:24:22;;;;;;;16.57;5.83;;;14.50;99.90;;;;;;7286788;19;20184;-80
2023/06/03 00:26:52;;;;;;;17.53;5.90;;;14.60;99.90;;;;;;7288274;19;20891;-80
2023/06/03 00:29:21;;;;;;;17.40;5.93;;;14.50;99.90;;;;;;7288722;19;20191;-81
2023/06/03 00:31:47;;;;;;;21.10;6.57;;;14.60;99.90;;;;;;7286074;19;20220;-80
2023/06/03 00:34:13;;;;;;;15.67;6.13;;;14.60;99.90;;;;;;7288115;19;20283;-80
2023/06/03 00:36:40;;;;;;;20.93;6.83;;;14.60;99.90;;;;;;7286542;19;20218;-80
2023/06/03 00:39:07;;;;;;;17.30;6.20;;;14.60;99.90;;;;;;7286808;19;20861;-80
2023/06/03 00:41:33;;;;;;;15.27;5.87;;;14.60;99.90;;;;;;7287640;19;20190;-80
2023/06/03 00:43:58;;;;;;;16.70;7.07;;;14.50;99.90;;;;;;7286687;19;20191;-80
2023/06/03 00:46:25;;;;;;;17.53;6.60;;;14.50;99.90;;;;;;7286961;19;20303;-80
2023/06/03 00:48:51;;;;;;;16.87;6.67;;;14.50;99.90;;;;;;7296616;19;20580;-79
2023/06/03 00:51:17;;;;;;;18.67;6.80;;;14.60;99.90;;;;;;7309370;19;20186;-80
2023/06/03 00:53:45;;;;;;;16.57;6.73;;;14.40;99.90;;;;;;7286587;19;20210;-80
2023/06/03 00:56:12;;;;;;;16.13;7.00;;;14.40;99.90;;;;;;7286300;19;20181;-80
2023/06/03 00:58:38;;;;;;;17.97;7.13;;;14.40;99.90;;;;;;7285517;19;20208;-80
2023/06/03 01:01:05;;;;;;;15.13;6.73;;;14.50;99.90;;;;;;7286036;19;20181;-80
2023/06/03 01:03:31;;;;;;;17.83;7.17;;;14.50;99.90;;;;;;7285713;19;20203;-80
2023/06/03 01:06:15;;;;;;;17.40;6.87;;;14.40;99.90;;;;;;7286158;19;20199;-81
2023/06/03 01:08:57;;;;;;;20.27;7.37;;;14.40;99.90;;;;;;7286407;19;20547;-80
2023/06/03 01:11:58;;;;;;;15.93;7.40;;;14.30;99.90;;;;;;7263832;19;20197;-80
2023/06/03 01:15:13;;;;;;;20.97;7.93;;;14.20;99.90;;;;;;7263775;19;20207;-80
2023/06/03 01:17:45;;;;;;;17.50;7.70;;;14.30;99.90;;;;;;7187153;19;2006309;-80
2023/06/03 01:20:12;;;;;;;16.13;7.17;;;14.20;99.90;;;;;;7288133;19;20180;-80
2023/06/03 01:22:41;;;;;;;20.57;7.67;;;14.20;99.90;;;;;;7285429;19;20273;-80
2023/06/03 01:25:11;;;;;;;20.27;8.73;;;14.30;99.90;;;;;;7284470;19;20189;-80
2023/06/03 01:27:40;;;;;;;16.00;8.27;;;14.40;99.90;;;;;;7284938;19;20684;-81
2023/06/03 01:30:11;;;;;;;18.00;8.50;;;14.40;99.90;;;;;;7284730;19;20205;-81
2023/06/03 01:32:38;;;;;;;20.57;8.20;;;14.40;99.90;;;;;;7284253;19;20216;-81
2023/06/03 01:35:07;;;;;;;19.77;9.07;;;14.20;99.90;;;;;;7284974;19;20207;-81
2023/06/03 01:37:34;;;;;;;20.17;8.97;;;14.20;99.90;;;;;;7284638;19;20183;-81
2023/06/03 01:40:01;;;;;;;18.27;8.90;;;14.30;99.90;;;;;;7284431;19;20191;-81
2023/06/03 01:42:31;;;;;;;19.30;8.30;;;14.20;99.90;;;;;;7285354;19;20546;-82
2023/06/03 01:44:58;;;;;;;20.60;8.83;;;14.00;99.90;;;;;;7284909;19;20186;-81
2023/06/03 01:47:26;;;;;;;20.27;8.37;;;14.00;99.90;;;;;;7284434;19;20636;-80
2023/06/03 01:49:52;;;;;;;21.10;8.83;;;14.10;99.90;;;;;;7284953;19;20189;-80
2023/06/03 01:52:19;;;;;;;18.30;9.63;;;14.10;99.90;;;;;;7305938;19;20244;-80
2023/06/03 01:54:45;;;;;;;19.77;9.33;;;14.10;99.90;;;;;;7285328;19;20201;-81
2023/06/03 01:57:11;;;;;;;18.63;9.43;;;14.20;99.90;;;;;;7283541;19;20182;-80
2023/06/03 01:59:37;;;;;;;24.83;9.90;;;14.20;99.90;;;;;;7284556;19;20186;-80
2023/06/03 02:02:03;;;;;;;20.57;10.20;;;14.30;99.90;;;;;;7285032;19;20184;-80
2023/06/03 02:04:28;;;;;;;21.43;10.27;;;14.30;99.90;;;;;;7283115;19;20191;-80
2023/06/03 02:06:58;;;;;;;26.03;10.27;;;14.20;99.90;;;;;;7283182;19;20679;-80
2023/06/03 02:09:27;;;;;;;21.13;9.70;;;14.20;99.90;;;;;;7284279;19;20212;-80
2023/06/03 02:11:57;;;;;;;17.90;9.60;;;14.20;99.90;;;;;;7283643;19;20584;-79
2023/06/03 02:14:24;;;;;;;23.27;9.43;;;14.20;99.90;;;;;;7284040;19;20212;-80
2023/06/03 02:16:50;;;;;;;24.27;10.43;;;14.40;99.90;;;;;;7303015;19;20191;-79
2023/06/03 02:19:18;;;;;;;20.93;9.47;;;14.30;99.90;;;;;;7296616;19;20205;-80
2023/06/03 02:21:45;;;;;;;19.47;10.00;;;14.20;99.90;;;;;;7283169;19;20633;-80
2023/06/03 02:24:14;;;;;;;21.73;10.13;;;14.30;99.90;;;;;;7282403;19;20182;-80
2023/06/03 02:26:49;;;;;;;21.63;10.63;;;14.30;99.90;;;;;;7283040;19;20219;-80
2023/06/03 02:29:17;;;;;;;22.27;10.37;;;14.30;99.90;;;;;;7282386;19;20642;-79
2023/06/03 02:31:43;;;;;;;24.63;10.87;;;14.30;99.90;;;;;;7288869;19;20748;-80
2023/06/03 02:34:12;;;;;;;27.83;10.30;;;14.20;99.90;;;;;;7289788;19;21068;-81
2023/06/03 02:36:42;;;;;;;24.33;10.87;;;14.20;99.90;;;;;;7289544;19;20205;-80
2023/06/03 02:39:09;;;;;;;22.53;10.20;;;14.40;99.90;;;;;;7290590;19;20511;-80
2023/06/03 02:41:38;;;;;;;24.63;10.53;;;14.30;99.90;;;;;;7290032;19;20187;-80
2023/06/03 02:44:04;;;;;;;19.30;11.07;;;14.20;99.90;;;;;;7285425;19;20205;-80
2023/06/03 02:46:31;;;;;;;20.80;10.20;;;14.20;99.90;;;;;;7289010;19;20199;-80
2023/06/03 02:48:58;;;;;;;23.57;10.20;;;14.30;99.90;;;;;;7291138;19;20188;-81
2023/06/03 02:51:23;;;;;;;24.47;11.40;;;14.40;99.90;;;;;;7288656;19;20192;-80
2023/06/03 02:53:50;;;;;;;24.67;10.70;;;14.30;99.90;;;;;;7312935;19;20201;-80
2023/06/03 02:56:16;;;;;;;24.03;10.70;;;14.40;99.90;;;;;;7290404;19;20183;-80
2023/06/03 02:58:42;;;;;;;18.30;10.53;;;14.30;99.90;;;;;;7289852;19;20194;-81
2023/06/03 03:01:07;;;;;;;19.90;10.27;;;14.40;99.90;;;;;;7291419;19;20621;-80
2023/06/03 03:03:36;;;;;;;24.80;10.93;;;14.40;99.90;;;;;;7288114;19;20182;-80
2023/06/03 03:06:06;;;;;;;21.97;10.87;;;14.30;99.90;;;;;;7289165;19;20187;-81
2023/06/03 03:08:33;;;;;;;23.13;10.50;;;14.30;99.90;;;;;;7290028;19;20186;-80
2023/06/03 03:10:59;;;;;;;25.37;11.27;;;14.20;99.90;;;;;;7288348;19;20608;-80
2023/06/03 03:13:26;;;;;;;22.33;11.07;;;14.20;99.90;;;;;;7290001;19;20187;-81
2023/06/03 03:15:52;;;;;;;21.70;10.50;;;14.10;99.90;;;;;;7290696;19;20246;-79
2023/06/03 03:18:17;;;;;;;21.10;11.10;;;14.00;99.90;;;;;;7311113;19;20187;-80
2023/06/03 03:20:44;;;;;;;19.57;10.67;;;13.90;99.90;;;;;;7289020;19;20196;-80
2023/06/03 03:23:13;;;;;;;22.33;10.90;;;13.90;99.90;;;;;;7287286;19;20208;-80
2023/06/03 03:25:40;;;;;;;23.27;11.50;;;13.90;99.90;;;;;;7286556;19;20696;-80
2023/06/03 03:28:07;;;;;;;25.53;11.17;;;14.00;99.90;;;;;;7288085;19;20540;-80
2023/06/03 03:30:36;;;;;;;21.77;11.30;;;14.00;99.90;;;;;;7287285;19;20551;-80
2023/06/03 03:33:06;;;;;;;22.57;11.23;;;14.10;99.90;;;;;;7288006;19;20200;-80
2023/06/03 03:35:32;;;;;;;24.40;11.70;;;14.10;99.90;;;;;;7287035;19;20292;-80
2023/06/03 03:37:58;;;;;;;23.17;11.93;;;14.20;99.90;;;;;;7286474;19;20197;-80
2023/06/03 03:40:25;;;;;;;23.50;10.83;;;14.10;99.90;;;;;;7287600;19;20194;-79
2023/06/03 03:42:55;;;;;;;30.03;11.90;;;14.20;99.90;;;;;;7287233;19;20620;-80
2023/06/03 03:45:27;;;;;;;20.47;11.80;;;14.10;99.90;;;;;;7286895;19;20181;-80
2023/06/03 03:47:57;;;;;;;25.17;11.30;;;14.10;99.90;;;;;;7288299;19;20226;-80
2023/06/03 03:50:50;;;;;;;21.67;11.10;;;14.00;99.90;;;;;;7287928;19;20202;-80
2023/06/03 03:53:36;;;;;;;17.73;10.77;;;14.00;99.90;;;;;;7185111;19;2004469;-81
2023/06/03 03:56:06;;;;;;;23.37;11.77;;;13.90;99.90;;;;;;7287776;19;20200;-80
2023/06/03 03:58:43;;;;;;;23.93;12.00;;;13.90;99.90;;;;;;7286710;19;20192;-80
2023/06/03 04:01:16;;;;;;;23.17;12.07;;;14.00;99.90;;;;;;7288791;19;20196;-80
2023/06/03 04:03:48;;;;;;;22.90;12.27;;;14.10;99.90;;;;;;7287921;19;20192;-81
2023/06/03 04:06:24;;;;;;;22.37;11.50;;;14.10;99.90;;;;;;7286637;19;20183;-80
2023/06/03 04:08:52;;;;;;;25.53;12.13;;;14.20;99.90;;;;;;7288166;19;20186;-80
2023/06/03 04:11:27;;;;;;;24.43;11.77;;;14.30;99.90;;;;;;7287814;19;20617;-80
2023/06/03 04:13:55;;;;;;;19.73;11.27;;;14.30;99.90;;;;;;7266067;19;20530;-80
2023/06/03 04:16:49;;;;;;;22.93;11.27;;;14.30;99.90;;;;;;7288387;19;20294;-81
2023/06/03 04:19:30;;;;;;;24.53;11.17;;;14.20;99.90;;;;;;7287749;19;20201;-81
2023/06/03 04:21:59;;;;;;;20.60;10.87;;;14.30;99.90;;;;;;7183330;19;2004407;-81
2023/06/03 04:24:25;;;;;;;22.77;11.53;;;14.10;99.90;;;;;;7286565;19;20195;-81
2023/06/03 04:26:53;;;;;;;23.67;11.17;;;14.00;99.90;;;;;;7286994;19;20699;-80
2023/06/03 04:29:19;;;;;;;25.83;11.60;;;14.10;99.90;;;;;;7310149;19;20271;-81
2023/06/03 04:31:45;;;;;;;23.17;11.60;;;14.10;99.90;;;;;;7286792;19;20190;-81
2023/06/03 04:34:12;;;;;;;22.00;11.60;;;14.60;99.90;;;;;;7286804;19;20645;-81
2023/06/03 04:36:37;;;;;;;24.57;10.80;;;15.40;99.90;;;;;;7286068;19;20181;-81
2023/06/03 04:39:08;;;;;;;19.80;10.60;;;16.40;99.90;;;;;;7285375;19;20203;-81
2023/06/03 04:41:37;;;;;;;20.97;10.13;;;17.00;99.90;;;;;;7286780;19;20185;-81
2023/06/03 04:44:04;;;;;;;18.53;9.17;;;17.40;99.90;;;;;;7286133;19;20543;-81
2023/06/03 04:46:30;;;;;;;18.50;10.03;;;17.70;99.90;;;;;;7286223;19;20184;-81
2023/06/03 04:49:01;;;;;;;17.30;9.30;;;17.90;99.90;;;;;;7286708;19;20199;-80
2023/06/03 04:51:33;;;;;;;19.00;9.17;;;18.40;99.90;;;;;;7285376;19;20512;-81
2023/06/03 04:54:01;;;;;;;23.63;8.87;;;19.10;99.90;;;;;;7283921;19;20270;-81
2023/06/03 04:56:29;;;;;;;20.57;8.90;;;19.50;99.90;;;;;;7286058;19;20290;-80
2023/06/03 04:58:57;;;;;;;16.57;8.57;;;19.30;99.90;;;;;;7285830;19;20611;-80
2023/06/03 05:01:27;;;;;;;19.27;8.47;;;19.80;99.90;;;;;;7285388;19;20183;-80
2023/06/03 05:03:54;;;;;;;17.70;8.90;;;19.70;99.90;;;;;;7285009;19;20530;-80
2023/06/03 05:06:21;;;;;;;15.80;8.03;;;19.80;99.90;;;;;;7306169;19;20189;-79
2023/06/03 05:08:48;;;;;;;20.27;8.80;;;19.40;99.90;;;;;;7303299;19;20243;-81
2023/06/03 05:11:17;;;;;;;18.97;8.07;;;20.00;99.90;;;;;;7284704;19;20222;-80
2023/06/03 05:13:44;;;;;;;20.30;8.67;;;20.20;99.90;;;;;;7286459;19;20189;-81
2023/06/03 05:16:11;;;;;;;17.97;8.80;;;21.40;99.90;;;;;;7285692;19;20243;-81
2023/06/03 05:18:39;;;;;;;15.63;7.93;;;22.00;99.90;;;;;;7285388;19;20218;-80
2023/06/03 05:21:06;;;;;;;16.00;8.10;;;22.10;99.90;;;;;;7285076;19;20189;-80
2023/06/03 05:23:32;;;;;;;17.87;8.00;;;22.40;99.90;;;;;;7284946;19;20238;-80
2023/06/03 05:25:57;;;;;;;15.80;7.53;;;22.60;99.90;;;;;;7283678;19;20949;-81
2023/06/03 05:28:25;;;;;;;19.33;7.90;;;23.00;99.90;;;;;;7286062;19;20231;-79
2023/06/03 05:30:52;;;;;;;18.87;7.83;;;23.50;99.90;;;;;;7289387;19;20196;-80
2023/06/03 05:33:27;;;;;;;15.50;7.73;;;22.60;99.90;;;;;;7308181;19;20202;-79
2023/06/03 05:35:57;;;;;;;15.57;7.30;;;22.10;99.90;;;;;;7182863;19;2004417;-80
2023/06/03 05:38:24;;;;;;;16.00;7.37;;;22.50;99.90;;;;;;7283905;19;20182;-79
2023/06/03 05:40:51;;;;;;;17.13;7.43;;;21.80;99.90;;;;;;7306980;19;20194;-80
2023/06/03 05:43:17;;;;;;;16.27;7.10;;;22.20;99.90;;;;;;7283671;19;20325;-80
2023/06/03 05:45:44;;;;;;;14.40;6.77;;;22.00;99.90;;;;;;7281849;19;20191;-80
2023/06/03 05:48:10;;;;;;;12.30;6.13;;;22.70;99.90;;;;;;7284682;19;20207;-81
2023/06/03 05:50:38;;;;;;;16.10;6.60;;;22.90;99.90;;;;;;7283341;19;20188;-81
2023/06/03 05:53:04;;;;;;;16.17;6.43;;;23.80;99.90;;;;;;7284716;19;20188;-81
2023/06/03 05:55:30;;;;;;;16.23;6.43;;;22.90;99.90;;;;;;7283777;19;20237;-80
2023/06/03 05:57:57;;;;;;;17.50;6.50;;;22.80;99.90;;;;;;7283436;19;20553;-81
2023/06/03 06:00:23;;;;;;;14.43;6.27;;;24.10;99.90;;;;;;7284608;19;20191;-80
2023/06/03 06:02:53;;;;;;;14.53;6.10;;;25.50;99.90;;;;;;7282063;19;20288;-82
2023/06/03 06:05:19;;;;;;;13.30;5.80;;;25.10;99.90;;;;;;7302536;19;20498;-81
2023/06/03 06:07:45;;;;;;;11.93;5.43;;;24.30;99.90;;;;;;7283626;19;20266;-79
2023/06/03 06:10:11;;;;;;;18.23;6.00;;;23.60;99.90;;;;;;7283084;19;20204;-78
2023/06/03 06:12:37;;;;;;;14.83;5.30;;;23.00;99.90;;;;;;7281953;19;20185;-76
2023/06/03 06:15:03;;;;;;;15.17;5.20;;;22.70;99.90;;;;;;7281220;19;20200;-80
2023/06/03 06:17:30;;;;;;;13.07;4.67;;;22.60;99.90;;;;;;7281668;19;20192;-78
2023/06/03 06:19:55;;;;;;;13.07;5.07;;;23.00;99.90;;;;;;7281421;19;20188;-78
2023/06/03 06:22:21;;;;;;;13.10;4.47;;;23.10;99.90;;;;;;7296282;19;20188;-77
2023/06/03 06:24:47;;;;;;;13.80;4.90;;;24.00;99.90;;;;;;7297211;19;20189;-78
2023/06/03 06:27:13;;;;;;;11.80;4.00;;;23.30;99.90;;;;;;7281308;19;20712;-78
2023/06/03 06:29:39;;;;;;;13.73;4.47;;;22.70;99.90;;;;;;7279122;19;20225;-78
2023/06/03 06:32:06;;;;;;;14.17;4.70;;;23.00;99.90;;;;;;7283731;19;20193;-77
2023/06/03 06:34:34;;;;;;;11.83;4.40;;;22.70;99.90;;;;;;7282040;19;20200;-78
2023/06/03 06:37:00;;;;;;;10.20;4.10;;;22.30;99.90;;;;;;7283272;19;20192;-78
2023/06/03 06:39:48;;;;;;;10.97;3.80;;;22.00;99.90;;;;;;7281818;19;20189;-78
2023/06/03 06:42:32;;;;;;;13.30;4.30;;;22.10;99.90;;;;;;7259631;19;20222;-78
2023/06/03 06:45:22;;;;;;;12.60;3.93;;;22.30;99.90;;;;;;7281949;19;20283;-78
2023/06/03 06:47:48;;;;;;;10.07;3.73;;;23.10;99.90;;;;;;7281459;19;20184;-78
2023/06/03 06:50:34;;;;;;;9.83;3.63;;;23.50;99.90;;;;;;7281204;19;20189;-78
2023/06/03 06:53:03;;;;;;;13.10;3.70;;;23.80;99.90;;;;;;7180146;19;2004422;-78
2023/06/03 06:55:49;;;;;;;9.70;3.50;;;24.30;99.90;;;;;;7281700;19;20738;-77
2023/06/03 06:58:20;;;;;;;9.88;3.67;;;24.30;99.90;;;;;;7282243;19;20272;-78
2023/06/03 07:00:47;;;;;;;12.23;4.00;;;24.40;99.90;;;;;;7281868;19;20221;-78
2023/06/03 07:03:16;;;;;;;10.13;3.17;;;24.70;99.90;;;;;;7282943;19;20181;-78
2023/06/03 07:05:43;;;;;;;9.90;3.50;;;25.70;99.90;;;;;;7281494;19;20182;-78
2023/06/03 07:08:09;;;;;;;8.73;3.75;;;27.30;99.90;;;;;;7281910;19;20283;-81
2023/06/03 07:10:36;;;;;;;13.18;3.60;;;27.40;99.90;;;;;;7280783;19;20200;-80
2023/06/03 07:13:02;;;;;;;8.60;3.20;;;27.50;99.90;;;;;;7283161;19;20181;-80
2023/06/03 07:15:29;;;;;;;7.60;3.13;;;27.90;98.20;;;;;;7282936;19;20265;-79
2023/06/03 07:17:57;;;;;;;11.70;3.28;;;28.00;97.30;;;;;;7285826;19;20187;-80
2023/06/03 07:20:43;;;;;;;10.55;3.22;;;28.00;96.40;;;;;;7288851;19;20736;-78
2023/06/03 07:23:22;;;;;;;9.85;2.92;;;28.20;96.40;;;;;;7287621;19;20214;-79
2023/06/03 07:25:50;;;;;;;8.63;3.10;;;29.10;95.00;;;;;;7286668;19;20188;-78
2023/06/03 07:28:24;;;;;;;10.27;2.90;;;29.50;92.90;;;;;;7289536;19;20185;-78
2023/06/03 07:30:52;;;;;;;8.65;2.97;;;29.30;92.20;;;;;;7288471;19;20173;-78
2023/06/03 07:33:26;;;;;;;11.75;3.13;;;28.20;90.70;;;;;;7288957;19;20618;-78
2023/06/03 07:35:55;;;;;;;9.52;3.15;;;26.90;92.00;;;;;;7264854;19;20287;-78
2023/06/03 07:38:39;;;;;;;8.77;2.97;;;27.00;92.80;;;;;;7309283;19;20197;-78
2023/06/03 07:41:09;;;;;;;11.02;3.33;;;27.40;93.10;;;;;;7185056;19;2004429;-78
2023/06/03 07:43:40;;;;;;;8.43;3.13;;;28.20;92.40;;;;;;7287081;19;20185;-78
2023/06/03 07:46:07;;;;;;;8.20;3.15;;;29.20;90.70;;;;;;7286984;19;20191;-78
2023/06/03 07:48:39;;;;;;;11.00;3.00;;;29.70;91.30;;;;;;7287013;19;20185;-79
2023/06/03 07:51:05;;;;;;;6.80;3.00;;;30.70;85.90;;;;;;7287567;19;20568;-78
2023/06/03 07:53:35;;;;;;;6.70;2.80;;;29.60;80.50;;;;;;7285996;19;20202;-78
2023/06/03 07:56:12;;;;;;;11.98;3.33;;;28.50;83.60;;;;;;7287685;19;20181;-78
2023/06/03 07:58:38;;;;;;;8.32;2.95;;;28.40;84.40;;;;;;7287079;19;20200;-78
2023/06/03 08:01:05;;;;;;;9.55;3.45;;;28.50;86.10;;;;;;7288070;19;20193;-77
2023/06/03 08:03:32;;;;;;;10.60;3.30;;;28.30;86.10;;;;;;7287219;19;20192;-77
2023/06/03 08:05:58;;;;;;;10.43;3.25;;;28.20;86.20;;;;;;7287102;19;20185;-77
2023/06/03 08:08:33;;;;;;;7.50;3.10;;;28.20;86.50;;;;;;7286543;19;20371;-78
2023/06/03 08:11:00;;;;;;;9.68;2.78;;;27.80;86.00;;;;;;7286009;19;20196;-78
2023/06/03 08:13:26;;;;;;;10.38;2.80;;;28.10;84.20;;;;;;7287021;19;20201;-78
2023/06/03 08:15:52;;;;;;;8.45;2.65;;;28.10;84.20;;;;;;7298455;19;20176;-78
2023/06/03 08:18:47;;;;;;;8.15;2.85;;;27.70;82.30;;;;;;7303575;19;20202;-78
2023/06/03 08:21:14;;;;;;;8.15;2.75;;;27.10;83.10;;;;;;7183147;19;2004416;-77
2023/06/03 08:23:40;;;;;;;7.47;2.40;;;27.60;84.60;;;;;;7285656;19;20193;-76
2023/06/03 08:26:08;;;;;;;8.75;2.65;;;27.60;81.60;;;;;;7285600;19;20204;-77
2023/06/03 08:28:34;;;;;;;6.55;2.22;;;28.20;79.50;;;;;;7284822;19;20656;-77
2023/06/03 08:30:59;;;;;;;8.88;2.60;;;28.50;79.20;;;;;;7286665;19;20209;-77
2023/06/03 08:33:25;;;;;;;6.13;2.10;;;28.10;77.60;;;;;;7286200;19;20674;-77
2023/06/03 08:35:51;;;;;;;8.73;2.70;;;28.10;77.70;;;;;;7308801;19;20207;-77
2023/06/03 08:38:17;;;;;;;8.50;2.88;;;28.20;76.10;;;;;;7285783;19;20204;-77
2023/06/03 08:40:48;;;;;;;6.75;2.42;;;27.70;78.10;;;;;;7284881;19;20651;-77
2023/06/03 08:43:16;;;;;;;7.43;2.20;;;27.80;75.90;;;;;;7285047;19;20195;-78
2023/06/03 08:46:03;;;;;;;7.88;2.60;;;28.00;77.30;;;;;;7280792;19;20366;-77
2023/06/03 08:48:58;;;;;;;8.43;2.13;;;28.30;74.80;;;;;;7182233;19;2005081;-77
2023/06/03 08:51:24;;;;;;;6.63;2.30;;;28.60;75.10;;;;;;7263003;19;20206;-76
2023/06/03 08:53:51;;;;;;;7.50;2.70;;;28.30;72.90;;;;;;7306907;19;20549;-77
2023/06/03 08:56:19;;;;;;;7.45;2.00;;;27.60;74.10;;;;;;7286046;19;20184;-77
2023/06/03 08:58:54;;;;;;;8.13;2.10;;;27.70;73.70;;;;;;7284355;19;20194;-77
2023/06/03 09:01:27;;;;;;;4.63;1.88;;;28.10;71.90;;;;;;7285518;19;20292;-77
2023/06/03 09:03:54;;;;;;;6.30;2.22;;;28.40;73.90;;;;;;7270802;19;20185;-76
2023/06/03 09:06:20;;;;;;;7.88;2.25;;;28.00;72.30;;;;;;7305367;19;20213;-77
2023/06/03 09:08:50;;;;;;;7.45;1.85;;;27.90;71.80;;;;;;7284928;19;20216;-77
2023/06/03 09:11:17;;;;;;;8.90;1.98;;;27.80;69.10;;;;;;7285959;19;20835;-77
2023/06/03 09:13:44;;;;;;;9.27;2.30;;;27.50;70.80;;;;;;7283549;19;20208;-76
2023/06/03 09:16:11;;;;;;;6.70;2.08;;;27.30;70.90;;;;;;7284934;19;20192;-76
2023/06/03 09:18:37;;;;;;;6.88;2.10;;;27.50;70.80;;;;;;7283026;19;20562;-77
2023/06/03 09:21:04;;;;;;;9.30;2.10;;;27.80;69.10;;;;;;7284135;19;20625;-77
2023/06/03 09:23:30;;;;;;;6.85;2.30;;;28.20;69.20;;;;;;7284207;19;20205;-77
2023/06/03 09:25:56;;;;;;;5.63;2.10;;;28.30;67.00;;;;;;7282965;19;20743;-77
2023/06/03 09:28:22;;;;;;;7.28;2.00;;;28.00;67.40;;;;;;7301335;19;20287;-77
2023/06/03 09:30:48;;;;;;;6.90;2.10;;;27.10;67.30;;;;;;7299344;19;20207;-78
2023/06/03 09:33:15;;;;;;;6.38;2.05;;;26.10;68.50;;;;;;7285382;19;20669;-78
2023/06/03 09:35:40;;;;;;;7.35;2.28;;;26.30;68.40;;;;;;7283693;19;20566;-78
2023/06/03 09:38:06;;;;;;;6.93;2.10;;;26.00;68.90;;;;;;7284117;19;20197;-78
2023/06/03 09:40:33;;;;;;;4.90;1.80;;;25.90;69.50;;;;;;7280657;19;20188;-77
2023/06/03 09:42:59;;;;;;;7.75;2.10;;;26.30;70.00;;;;;;7284551;19;20201;-77
2023/06/03 09:45:30;;;;;;;4.75;1.83;;;26.40;67.80;;;;;;7283396;19;20189;-77
2023/06/03 09:47:57;;;;;;;4.47;2.13;;;26.60;67.80;;;;;;7284402;19;20192;-77
2023/06/03 09:50:24;;;;;;;5.13;2.17;;;26.70;66.70;;;;;;7297367;19;20188;-77
2023/06/03 09:52:50;;;;;;;6.65;2.22;;;27.00;67.60;;;;;;7305462;19;20221;-77
2023/06/03 09:55:17;;;;;;;7.13;1.80;;;27.80;66.00;;;;;;7283572;19;20185;-77
2023/06/03 09:58:04;;;;;;;6.40;2.00;;;27.30;65.50;;;;;;7282519;19;20193;-76
2023/06/03 10:00:48;;;;;;;7.15;1.90;;;27.70;66.70;;;;;;7181212;19;2005056;-77
2023/06/03 10:03:15;;;;;;;6.32;2.33;;;28.00;64.10;;;;;;7283710;19;21044;-76
2023/06/03 10:05:41;;;;;;;7.07;1.90;;;27.20;64.40;;;;;;7283831;19;20656;-77
2023/06/03 10:08:07;;;;;;;7.65;2.00;;;27.00;65.40;;;;;;7282785;19;20193;-77
2023/06/03 10:10:33;;;;;;;4.70;1.80;;;27.20;66.80;;;;;;7284041;19;20231;-78
2023/06/03 10:13:18;;;;;;;6.38;2.13;;;28.00;63.60;;;;;;7283249;19;20213;-78
2023/06/03 10:15:44;;;;;;;7.03;2.13;;;27.80;64.20;;;;;;7283061;19;20931;-78
2023/06/03 10:18:10;;;;;;;5.45;1.90;;;27.70;62.80;;;;;;7283529;19;20193;-78
2023/06/03 10:20:37;;;;;;;4.45;1.52;;;27.40;63.80;;;;;;7283326;19;20674;-78
2023/06/03 10:23:05;;;;;;;6.22;1.90;;;27.50;66.10;;;;;;7282959;19;20184;-78
2023/06/03 10:25:42;;;;;;;7.10;2.05;;;28.20;63.30;;;;;;7283026;19;20196;-78
2023/06/03 10:28:09;;;;;;;6.60;2.00;;;28.90;64.60;;;;;;7284892;19;20192;-78
2023/06/03 10:30:35;;;;;;;6.93;2.17;;;29.40;60.60;;;;;;7285135;19;20207;-79
2023/06/03 10:33:03;;;;;;;7.38;2.20;;;29.10;60.30;;;;;;7283114;19;20185;-78
2023/06/03 10:35:32;;;;;;;5.97;1.98;;;28.70;60.90;;;;;;7283411;19;20199;-79
2023/06/03 10:38:03;;;;;;;5.78;2.22;;;28.60;60.20;;;;;;7281948;19;20185;-79
2023/06/03 10:40:29;;;;;;;6.45;1.90;;;28.20;61.40;;;;;;7282716;19;20196;-78
2023/06/03 10:42:56;;;;;;;5.80;1.90;;;28.70;61.30;;;;;;7283456;19;20783;-78
2023/06/03 10:45:26;;;;;;;8.73;1.92;;;30.10;62.80;;;;;;7301614;19;20218;-78
2023/06/03 10:48:03;;;;;;;5.93;2.00;;;29.20;59.90;;;;;;7277412;19;20197;-78
2023/06/03 10:50:47;;;;;;;8.57;1.98;;;29.20;59.10;;;;;;7283321;19;20196;-78
2023/06/03 10:53:27;;;;;;;6.38;2.00;;;28.60;59.00;;;;;;7290041;19;20198;-78
2023/06/03 10:56:20;;;;;;;6.65;2.10;;;28.20;60.40;;;;;;7282650;19;20200;-78
2023/06/03 10:58:58;;;;;;;8.25;1.95;;;28.00;59.60;;;;;;7288915;19;20193;-78
2023/06/03 11:01:43;;;;;;;6.00;2.10;;;28.40;61.30;;;;;;7274225;19;20531;-78
2023/06/03 11:04:09;;;;;;;9.10;2.17;;;28.60;59.50;;;;;;7289267;19;20642;-78
2023/06/03 11:06:35;;;;;;;7.75;2.30;;;28.30;59.30;;;;;;7289222;19;20185;-78
2023/06/03 11:09:05;;;;;;;8.63;2.33;;;28.00;60.20;;;;;;7290178;19;20181;-78
2023/06/03 11:11:58;;;;;;;5.43;1.90;;;28.50;62.50;;;;;;7288999;19;20197;-78
2023/06/03 11:14:24;;;;;;;5.57;2.00;;;29.10;60.80;;;;;;7265253;19;20192;-78
2023/06/03 11:16:56;;;;;;;8.50;2.33;;;28.60;59.50;;;;;;7310990;19;20189;-79
2023/06/03 11:19:28;;;;;;;7.95;2.03;;;28.10;59.40;;;;;;7289650;19;20185;-78
2023/06/03 11:21:54;;;;;;;8.95;2.13;;;28.10;59.90;;;;;;7266296;19;20218;-78
2023/06/03 11:24:38;;;;;;;7.88;2.20;;;28.60;60.10;;;;;;7310178;19;20546;-79
2023/06/03 11:27:13;;;;;;;6.10;2.05;;;29.20;59.50;;;;;;7183780;19;2004930;-79
2023/06/03 11:29:48;;;;;;;7.93;2.38;;;29.60;58.70;;;;;;7290160;19;20191;-79
2023/06/03 11:32:19;;;;;;;6.13;2.13;;;29.80;59.10;;;;;;7288365;19;20635;-78
2023/06/03 11:34:50;;;;;;;6.07;2.03;;;29.30;58.10;;;;;;7288102;19;20535;-79
2023/06/03 11:37:19;;;;;;;6.20;2.13;;;28.70;57.10;;;;;;7287315;19;20191;-78
2023/06/03 11:40:02;;;;;;;7.90;2.08;;;28.70;58.60;;;;;;7286286;19;20189;-82
2023/06/03 11:42:28;;;;;;;4.88;2.00;;;29.20;59.10;;;;;;7185337;19;2004734;-78
2023/06/03 11:45:14;;;;;;;5.25;2.00;;;29.00;58.00;;;;;;7289892;19;20569;-77
2023/06/03 11:47:54;;;;;;;7.70;2.10;;;28.70;58.30;;;;;;7285458;19;20221;-79
2023/06/03 11:50:31;;;;;;;6.75;2.08;;;29.10;59.40;;;;;;7279626;19;20232;-78
2023/06/03 11:52:57;;;;;;;8.10;2.30;;;28.80;57.40;;;;;;7289868;19;20192;-80
2023/06/03 11:55:27;;;;;;;7.57;2.35;;;28.70;57.40;;;;;;7300820;19;20287;-78
2023/06/03 11:57:56;;;;;;;8.25;1.98;;;28.80;57.10;;;;;;7307998;19;20188;-77
2023/06/03 12:00:22;;;;;;;6.43;1.98;;;28.70;57.20;;;;;;7310110;19;20184;-79
2023/06/03 12:02:48;;;;;;;7.20;2.00;;;28.20;58.10;;;;;;7287362;19;20198;-79
2023/06/03 12:05:15;;;;;;;4.93;2.03;;;27.30;58.30;;;;;;7286488;19;20182;-83
2023/06/03 12:07:58;;;;;;;5.82;1.88;;;26.50;58.80;;;;;;7287266;19;20184;-79
2023/06/03 12:10:24;;;;;;;9.30;2.40;;;25.60;60.00;;;;;;7272473;19;20188;-78
2023/06/03 12:12:55;;;;;;;10.80;2.35;;;25.00;62.60;;;;;;7309712;19;20198;-80
2023/06/03 12:15:22;;;;;;;7.45;1.83;;;24.60;62.00;;;;;;7288143;19;20261;-79
2023/06/03 12:17:48;;;;;;;9.32;2.30;;;24.80;65.60;;;;;;7286639;19;20541;-78
2023/06/03 12:20:24;;;;;;;7.57;1.83;;;24.70;63.00;;;;;;7286581;19;20186;-79
2023/06/03 12:23:01;;;;;;;7.27;2.03;;;24.40;64.00;;;;;;7286630;19;20189;-78
2023/06/03 12:25:27;;;;;;;8.47;2.07;;;24.10;63.80;;;;;;7283767;19;20605;-79
2023/06/03 12:27:54;;;;;;;8.43;1.90;;;24.00;64.60;;;;;;7301913;19;20688;-79
2023/06/03 12:30:31;;;;;;;5.80;1.90;;;23.90;64.60;;;;;;7309182;19;20207;-79
2023/06/03 12:32:58;;;;;;;8.63;2.33;;;24.00;64.60;;;;;;7264207;19;20606;-79
2023/06/03 12:35:27;;;;;;;7.67;2.10;;;24.00;64.10;;;;;;7295736;19;20221;-78
2023/06/03 12:38:06;;;;;;;5.97;1.90;;;24.20;67.90;;;;;;7301830;19;20185;-81
2023/06/03 12:40:32;;;;;;;6.80;2.00;;;24.50;67.10;;;;;;7285093;19;20559;-82
2023/06/03 12:42:59;;;;;;;9.97;2.17;;;24.60;65.90;;;;;;7286275;19;20197;-82
2023/06/03 12:45:25;;;;;;;6.97;1.93;;;24.40;62.50;;;;;;7285240;19;20201;-81
2023/06/03 12:47:53;;;;;;;9.20;1.90;;;24.40;64.40;;;;;;7307922;19;20193;-82
2023/06/03 12:50:20;;;;;;;5.20;1.93;;;24.40;65.00;;;;;;7287900;19;20180;-82
2023/06/03 12:52:47;;;;;;;6.80;1.50;;;24.40;64.40;;;;;;7286270;19;20188;-82